Time;durP1;ratioP1;P1;durP2;ratioP2;P2;SDS_P1;SDS_P2;PMS_P1;PMS_P2;Temp;Humidity;BMP_temperature;BMP_pressure;BME280_temperature;BME280_humidity;BME280_pressure;Samples;Min_cycle;Max_cycle;Signal;HPM_P1;HPM_P2
2022/08/10 00:00:21;;;;;;;14.18;4.45;;;29.70;99.90;;;;;;5032457;22;20045;-51
2022/08/10 00:02:55;;;;;;;10.60;4.22;;;29.60;99.90;;;;;;5031651;28;20371;-49
2022/08/10 00:05:22;;;;;;;8.13;4.07;;;29.60;99.90;;;;;;5031895;28;20175;-49
2022/08/10 00:07:48;;;;;;;8.82;4.32;;;29.70;99.90;;;;;;5024076;28;20021;-48
2022/08/10 00:10:16;;;;;;;10.05;4.32;;;29.60;99.90;;;;;;5028865;28;20060;-49
2022/08/10 00:12:42;;;;;;;9.45;4.72;;;29.60;99.90;;;;;;5028462;28;20029;-49
2022/08/10 00:15:10;;;;;;;13.73;4.97;;;29.60;99.90;;;;;;5030370;28;20061;-49
2022/08/10 00:17:36;;;;;;;9.52;4.38;;;29.50;99.90;;;;;;5029235;28;20057;-47
2022/08/10 00:20:03;;;;;;;12.35;4.78;;;29.50;99.90;;;;;;5027137;28;20068;-48
2022/08/10 00:22:29;;;;;;;12.65;4.40;;;29.50;99.90;;;;;;5031615;28;20025;-47
2022/08/10 00:24:56;;;;;;;13.30;4.68;;;29.50;99.90;;;;;;5031409;28;20107;-48
2022/08/10 00:27:26;;;;;;;11.35;4.18;;;29.40;99.90;;;;;;5031422;28;20535;-47
2022/08/10 00:29:52;;;;;;;12.30;4.10;;;29.40;99.90;;;;;;5031491;28;20037;-48
2022/08/10 00:32:18;;;;;;;10.32;4.22;;;29.40;99.90;;;;;;5031368;28;20032;-47
2022/08/10 00:34:45;;;;;;;14.15;4.80;;;29.30;99.90;;;;;;5031437;28;20398;-48
2022/08/10 00:37:16;;;;;;;15.60;4.63;;;29.40;99.90;;;;;;5031418;28;20022;-49
2022/08/10 00:39:42;;;;;;;12.40;4.57;;;29.30;99.90;;;;;;5031204;28;20033;-48
2022/08/10 00:42:10;;;;;;;15.18;4.60;;;29.30;99.90;;;;;;5031333;28;20021;-48
2022/08/10 00:44:42;;;;;;;12.35;4.20;;;29.20;99.90;;;;;;5028720;28;20068;-48
2022/08/10 00:47:09;;;;;;;14.23;4.00;;;29.20;99.90;;;;;;5023821;28;20033;-49
2022/08/10 00:49:35;;;;;;;16.38;4.53;;;29.20;99.90;;;;;;5031339;28;20022;-48
2022/08/10 00:52:02;;;;;;;9.73;4.10;;;29.20;99.90;;;;;;5031401;28;20032;-48
2022/08/10 00:54:28;;;;;;;14.05;4.53;;;29.20;99.90;;;;;;5031269;28;20022;-49
2022/08/10 00:56:54;;;;;;;16.15;4.30;;;29.20;99.90;;;;;;5031157;28;20037;-49
2022/08/10 01:01:49;;;;;;;10.93;4.13;;;29.10;99.90;;;;;;5048328;28;20041;-55
2022/08/10 01:04:15;;;;;;;9.40;4.30;;;29.20;99.90;;;;;;5044285;28;20035;-59
2022/08/10 01:06:55;;;;;;;9.60;4.70;;;29.20;99.90;;;;;;5032024;28;20116;-58
2022/08/10 01:09:54;;;;;;;11.73;4.13;;;29.20;99.90;;;;;;5050743;28;20086;-48
2022/08/10 01:12:29;;;;;;;15.52;4.82;;;29.10;99.90;;;;;;5037861;28;20029;-54
2022/08/10 01:15:00;;;;;;;12.88;5.55;;;29.10;99.90;;;;;;5049635;28;20048;-56
2022/08/10 01:17:45;;;;;;;12.52;3.78;;;29.10;99.90;;;;;;5050718;28;20037;-57
2022/08/10 01:20:40;;;;;;;14.25;4.65;;;29.10;99.90;;;;;;5049711;28;20357;-56
2022/08/10 01:23:25;;;;;;;11.88;4.35;;;29.10;99.90;;;;;;5046946;28;20026;-57
2022/08/10 01:26:02;;;;;;;10.15;4.95;;;29.10;99.90;;;;;;5043677;28;20174;-58
2022/08/10 01:28:53;;;;;;;10.63;4.25;;;29.10;99.90;;;;;;5050012;28;20747;-57
2022/08/10 01:31:26;;;;;;;10.18;4.07;;;29.00;99.90;;;;;;5043001;28;20071;-57
2022/08/10 01:34:02;;;;;;;14.82;4.25;;;29.10;99.90;;;;;;5049912;28;20515;-57
2022/08/10 01:36:35;;;;;;;14.40;4.57;;;29.00;99.90;;;;;;5040613;28;20033;-56
2022/08/10 01:39:03;;;;;;;12.95;4.60;;;29.10;99.90;;;;;;5050691;28;20057;-56
2022/08/10 01:41:35;;;;;;;17.75;4.55;;;29.00;99.90;;;;;;5050620;28;20025;-56
2022/08/10 01:44:04;;;;;;;17.15;4.28;;;29.10;99.90;;;;;;5046074;28;20030;-57
2022/08/10 01:46:33;;;;;;;11.60;4.50;;;29.10;99.90;;;;;;5041136;28;20025;-56
2022/08/10 01:49:01;;;;;;;10.57;4.40;;;29.10;99.90;;;;;;5049800;28;20016;-57
2022/08/10 01:51:40;;;;;;;14.18;4.10;;;29.20;99.90;;;;;;5041187;28;20435;-55
2022/08/10 01:54:13;;;;;;;17.13;4.93;;;29.10;99.90;;;;;;5043572;28;20100;-56
2022/08/10 01:56:44;;;;;;;17.70;4.93;;;29.20;99.90;;;;;;5049726;28;20087;-56
2022/08/10 02:01:55;;;;;;;7.38;4.32;;;29.20;99.90;;;;;;5035725;28;20056;-50
2022/08/10 02:04:23;;;;;;;14.88;5.18;;;29.10;99.90;;;;;;5029133;28;20060;-49
2022/08/10 02:06:51;;;;;;;14.05;4.47;;;29.20;99.90;;;;;;5030454;28;20051;-52
2022/08/10 02:09:20;;;;;;;10.85;4.30;;;29.20;99.90;;;;;;5030320;28;20514;-52
2022/08/10 02:11:50;;;;;;;9.40;3.67;;;29.20;99.90;;;;;;5044437;28;20039;-49
2022/08/10 02:14:17;;;;;;;13.52;4.80;;;29.10;99.90;;;;;;5030669;28;20119;-51
2022/08/10 02:16:47;;;;;;;12.48;4.45;;;29.10;99.90;;;;;;5030737;28;20129;-51
2022/08/10 02:19:17;;;;;;;12.00;4.22;;;29.10;99.90;;;;;;5016692;28;20484;-49
2022/08/10 02:21:46;;;;;;;14.30;5.28;;;29.10;99.90;;;;;;5034075;28;20033;-48
2022/08/10 02:24:13;;;;;;;12.95;4.22;;;29.10;99.90;;;;;;5033592;28;20052;-49
2022/08/10 02:26:42;;;;;;;7.28;4.43;;;29.10;99.90;;;;;;5034060;28;20466;-50
2022/08/10 02:29:11;;;;;;;26.55;4.75;;;29.10;99.90;;;;;;5033955;28;20117;-49
2022/08/10 02:31:37;;;;;;;11.48;4.07;;;29.10;99.90;;;;;;5033863;28;20029;-50
2022/08/10 02:34:04;;;;;;;13.98;5.15;;;29.10;99.90;;;;;;5033575;28;20026;-49
2022/08/10 02:36:33;;;;;;;10.70;4.47;;;29.10;99.90;;;;;;5033711;28;20144;-49
2022/08/10 02:39:02;;;;;;;8.93;4.22;;;29.10;99.90;;;;;;5033728;28;20025;-49
2022/08/10 02:41:57;;;;;;;9.15;4.40;;;29.10;99.90;;;;;;5033459;28;20064;-49
2022/08/10 02:44:52;;;;;;;14.27;4.57;;;29.10;99.90;;;;;;5027253;28;20451;-49
2022/08/10 02:47:54;;;;;;;25.98;6.25;;;29.10;99.90;;;;;;5015579;28;20032;-49
2022/08/10 02:50:24;;;;;;;14.52;5.57;;;29.00;99.90;;;;;;4945317;28;20040;-49
2022/08/10 02:53:10;;;;;;;13.13;4.88;;;29.00;99.90;;;;;;5033435;28;20029;-49
2022/08/10 02:56:03;;;;;;;16.00;4.63;;;29.00;99.90;;;;;;5033225;28;20083;-49
2022/08/10 02:58:39;;;;;;;18.00;5.47;;;29.00;99.90;;;;;;5033299;28;20033;-49
2022/08/10 03:01:09;;;;;;;12.43;5.10;;;29.00;99.90;;;;;;5031186;23;20052;-48
2022/08/10 03:04:06;;;;;;;12.65;4.10;;;29.00;99.90;;;;;;5013421;28;20036;-48
2022/08/10 03:06:40;;;;;;;;;;;29.00;99.90;;;;;;5000063;28;20038;-47
2022/08/10 03:09:12;;;;;;;14.88;5.07;;;29.00;99.90;;;;;;5013056;28;19910;-48
2022/08/10 03:11:40;;;;;;;13.60;4.97;;;29.00;99.90;;;;;;5013331;28;20112;-48
2022/08/10 03:14:08;;;;;;;7.57;4.25;;;29.00;99.90;;;;;;5013130;28;20026;-48
2022/08/10 03:16:35;;;;;;;10.85;4.53;;;28.90;99.90;;;;;;5012980;28;20026;-49
2022/08/10 03:19:04;;;;;;;10.73;4.80;;;28.90;99.90;;;;;;4995457;28;20386;-48
2022/08/10 03:21:31;;;;;;;11.02;4.25;;;28.90;99.90;;;;;;5013033;28;20120;-47
2022/08/10 03:24:01;;;;;;;8.88;4.70;;;28.90;99.90;;;;;;5012850;28;20080;-48
2022/08/10 03:26:31;;;;;;;17.08;4.75;;;28.90;99.90;;;;;;5012824;28;20038;-48
2022/08/10 03:28:59;;;;;;;12.07;4.00;;;28.90;99.90;;;;;;5012836;28;20022;-48
2022/08/10 03:31:28;;;;;;;10.48;4.28;;;28.90;99.90;;;;;;5012662;28;20021;-48
2022/08/10 03:33:54;;;;;;;12.45;5.85;;;28.90;99.90;;;;;;5012955;28;20018;-48
2022/08/10 03:36:20;;;;;;;15.93;4.97;;;28.90;99.90;;;;;;5012655;28;20033;-48
2022/08/10 03:38:50;;;;;;;13.18;4.50;;;28.90;99.90;;;;;;5012536;28;20108;-48
2022/08/10 03:41:19;;;;;;;10.35;4.45;;;28.90;99.90;;;;;;5012612;28;20478;-48
2022/08/10 03:43:47;;;;;;;10.02;4.65;;;28.90;99.90;;;;;;5012693;28;20088;-48
2022/08/10 03:46:17;;;;;;;13.98;5.10;;;28.80;99.90;;;;;;5012656;28;20033;-48
2022/08/10 03:48:44;;;;;;;16.95;4.65;;;28.90;99.90;;;;;;5012795;28;20436;-48
2022/08/10 03:51:11;;;;;;;10.88;4.85;;;28.90;99.90;;;;;;5012685;28;20070;-48
2022/08/10 03:53:38;;;;;;;14.35;4.95;;;28.90;99.90;;;;;;5012272;28;20022;-48
2022/08/10 03:56:04;;;;;;;15.20;6.40;;;28.90;99.90;;;;;;5012326;28;20037;-48
2022/08/10 03:58:31;;;;;;;12.20;4.83;;;28.80;99.90;;;;;;5012332;28;20057;-48
2022/08/10 04:00:58;;;;;;;13.55;4.13;;;28.80;99.90;;;;;;5013071;28;20045;-48
2022/08/10 04:03:25;;;;;;;11.57;4.47;;;28.80;99.90;;;;;;5012365;28;20038;-49
2022/08/10 04:05:51;;;;;;;11.80;4.73;;;28.80;99.90;;;;;;5012034;28;20518;-48
2022/08/10 04:08:16;;;;;;;12.38;6.20;;;28.80;99.90;;;;;;5012096;28;20774;-48
2022/08/10 04:10:42;;;;;;;10.88;4.93;;;28.80;99.90;;;;;;5012398;28;20049;-47
2022/08/10 04:13:08;;;;;;;11.15;4.78;;;28.80;99.90;;;;;;5012165;28;20450;-48
2022/08/10 04:15:34;;;;;;;10.43;4.10;;;28.80;99.90;;;;;;5011960;28;20029;-48
2022/08/10 04:17:59;;;;;;;9.60;3.75;;;28.80;99.90;;;;;;5012001;28;20021;-49
2022/08/10 04:20:25;;;;;;;12.48;4.35;;;28.80;99.90;;;;;;5011982;28;20470;-49
2022/08/10 04:22:55;;;;;;;11.63;4.50;;;28.80;99.90;;;;;;5011988;28;20026;-49
2022/08/10 04:25:23;;;;;;;8.55;4.53;;;28.80;99.90;;;;;;5012023;28;20034;-49
2022/08/10 04:27:50;;;;;;;8.98;3.75;;;28.80;99.90;;;;;;4978149;28;20060;-49
2022/08/10 04:30:16;;;;;;;13.93;4.78;;;28.70;99.90;;;;;;5012255;28;20084;-48
2022/08/10 04:32:44;;;;;;;13.40;4.33;;;28.70;99.90;;;;;;5011563;28;20104;-53
2022/08/10 04:35:12;;;;;;;9.23;4.22;;;28.70;99.90;;;;;;5011641;28;20026;-48
2022/08/10 04:37:39;;;;;;;13.07;4.45;;;28.70;99.90;;;;;;5011569;28;20026;-48
2022/08/10 04:40:05;;;;;;;15.75;4.93;;;28.70;99.90;;;;;;4993605;28;20033;-48
2022/08/10 04:42:31;;;;;;;12.65;5.45;;;28.70;99.90;;;;;;4993980;28;20026;-48
2022/08/10 04:44:58;;;;;;;10.77;3.88;;;28.70;99.90;;;;;;5011524;28;20060;-48
2022/08/10 04:47:24;;;;;;;12.73;4.80;;;28.70;99.90;;;;;;4993796;28;20029;-48
2022/08/10 04:49:49;;;;;;;13.73;4.90;;;28.70;99.90;;;;;;5011619;28;20026;-47
2022/08/10 04:52:16;;;;;;;10.65;4.18;;;28.70;99.90;;;;;;5011689;28;20018;-47
2022/08/10 04:54:41;;;;;;;10.77;4.28;;;28.70;99.90;;;;;;5011383;28;20022;-48
2022/08/10 04:57:08;;;;;;;12.50;4.53;;;28.70;99.90;;;;;;5011420;28;20525;-48
2022/08/10 04:59:33;;;;;;;14.18;4.55;;;28.70;99.90;;;;;;5011158;28;20026;-48
2022/08/10 05:01:59;;;;;;;18.73;5.05;;;28.70;99.90;;;;;;5011194;28;20032;-47
2022/08/10 05:04:25;;;;;;;14.98;4.95;;;28.70;99.90;;;;;;5011193;28;20034;-47
2022/08/10 05:06:51;;;;;;;21.15;5.50;;;28.70;99.90;;;;;;5011183;28;20108;-47
2022/08/10 05:09:17;;;;;;;12.73;4.97;;;28.70;99.90;;;;;;5011171;28;20482;-48
2022/08/10 05:11:42;;;;;;;14.60;4.30;;;28.70;99.90;;;;;;5011112;28;20500;-47
2022/08/10 05:14:08;;;;;;;13.60;4.20;;;28.60;99.90;;;;;;5011308;28;20096;-47
2022/08/10 05:16:34;;;;;;;10.07;4.57;;;28.60;99.90;;;;;;5010908;28;20045;-47
2022/08/10 05:19:00;;;;;;;21.88;5.10;;;28.60;99.90;;;;;;5011073;28;20038;-48
2022/08/10 05:21:25;;;;;;;10.23;4.13;;;28.60;99.90;;;;;;5011028;28;20366;-47
2022/08/10 05:23:51;;;;;;;16.42;5.13;;;28.60;99.90;;;;;;5010940;28;20565;-49
2022/08/10 05:26:17;;;;;;;12.68;4.15;;;28.60;99.90;;;;;;5011169;28;20034;-49
2022/08/10 05:28:42;;;;;;;11.82;4.07;;;28.60;99.90;;;;;;5011012;28;20470;-48
2022/08/10 05:31:08;;;;;;;13.23;3.90;;;28.60;99.90;;;;;;5010648;28;20026;-49
2022/08/10 05:33:34;;;;;;;17.88;5.03;;;28.60;99.90;;;;;;5011059;28;20018;-49
2022/08/10 05:36:00;;;;;;;10.82;5.38;;;28.50;99.90;;;;;;5011036;28;20390;-48
2022/08/10 05:38:28;;;;;;;11.77;5.05;;;28.50;99.90;;;;;;4993057;28;20470;-49
2022/08/10 05:40:54;;;;;;;;;;;28.50;99.90;;;;;;5011492;28;20459;-48
2022/08/10 05:43:21;;;;;;;13.73;5.28;;;28.50;99.90;;;;;;5011227;28;19905;-49
2022/08/10 05:45:48;;;;;;;11.98;4.20;;;28.50;99.90;;;;;;5010555;28;20049;-49
2022/08/10 05:48:14;;;;;;;16.50;4.18;;;28.40;99.90;;;;;;5010886;28;20064;-49
2022/08/10 05:50:40;;;;;;;16.70;4.50;;;28.50;99.90;;;;;;5010788;28;20097;-49
2022/08/10 05:53:06;;;;;;;9.20;3.92;;;28.50;99.90;;;;;;5013636;28;20125;-48
2022/08/10 05:55:31;;;;;;;20.02;5.20;;;28.50;99.90;;;;;;5014554;28;20033;-49
2022/08/10 05:57:59;;;;;;;13.50;3.47;;;28.50;99.90;;;;;;5014398;28;20049;-49
2022/08/10 06:00:25;;;;;;;;;;;28.50;99.90;;;;;;5014797;28;20050;-49
2022/08/10 06:03:03;;;;;;;13.10;4.45;;;28.50;99.90;;;;;;5014519;28;19906;-49
2022/08/10 06:05:33;;;;;;;11.77;3.85;;;28.50;99.90;;;;;;4996658;28;20036;-49
2022/08/10 06:08:22;;;;;;;20.50;5.10;;;28.50;99.90;;;;;;5014379;28;20464;-48
2022/08/10 06:10:52;;;;;;;19.52;4.45;;;28.50;99.90;;;;;;5014238;28;20502;-48
2022/08/10 06:16:06;;;;;;;13.33;4.30;;;28.50;99.90;;;;;;5014075;28;20053;-48
2022/08/10 06:18:32;;;;;;;;;;;28.50;99.90;;;;;;5014355;28;20298;-48
2022/08/10 06:20:59;;;;;;;15.18;4.65;;;28.50;99.90;;;;;;5014269;28;19905;-47
2022/08/10 06:23:27;;;;;;;22.45;4.70;;;28.60;99.90;;;;;;4996152;28;20363;-49
2022/08/10 06:25:54;;;;;;;17.45;4.18;;;28.60;99.90;;;;;;5014090;28;20049;-48
2022/08/10 06:28:21;;;;;;;15.02;4.85;;;28.50;99.90;;;;;;5014131;28;20018;-48
2022/08/10 06:30:49;;;;;;;21.67;4.65;;;28.60;99.90;;;;;;5013675;28;20034;-48
2022/08/10 06:33:17;;;;;;;13.60;3.63;;;28.60;99.90;;;;;;4996374;28;20434;-48
2022/08/10 06:35:43;;;;;;;16.83;4.32;;;28.60;99.90;;;;;;5013678;28;20030;-48
2022/08/10 06:38:10;;;;;;;17.38;4.28;;;28.60;99.90;;;;;;5013502;28;20531;-47
2022/08/10 06:40:39;;;;;;;13.17;3.60;;;28.70;99.90;;;;;;5013696;28;20068;-48
2022/08/10 06:43:09;;;;;;;22.35;4.00;;;28.70;99.90;;;;;;5013817;28;20259;-47
2022/08/10 06:46:07;;;;;;;14.23;3.78;;;28.70;99.90;;;;;;5013374;28;20076;-47
2022/08/10 06:48:56;;;;;;;10.32;3.83;;;28.70;99.90;;;;;;5013018;28;20030;-47
2022/08/10 06:51:34;;;;;;;14.85;4.25;;;28.70;99.90;;;;;;5013469;28;20022;-48
2022/08/10 06:54:06;;;;;;;14.45;3.95;;;28.80;99.90;;;;;;5013096;28;20026;-47
2022/08/10 06:56:38;;;;;;;11.68;3.65;;;28.80;99.90;;;;;;5013353;28;20018;-48
2022/08/10 06:59:20;;;;;;;16.88;4.30;;;28.80;99.90;;;;;;5013324;28;20121;-48
2022/08/10 07:01:58;;;;;;;12.02;4.05;;;28.80;99.90;;;;;;4998998;28;20042;-48
2022/08/10 07:04:29;;;;;;;14.30;4.15;;;28.90;99.90;;;;;;5013038;28;20124;-48
2022/08/10 07:06:56;;;;;;;11.32;4.03;;;28.90;99.90;;;;;;5013525;28;20030;-47
2022/08/10 07:09:23;;;;;;;12.20;4.38;;;28.90;99.90;;;;;;5013293;28;20046;-48
2022/08/10 07:11:50;;;;;;;17.65;4.10;;;28.90;99.90;;;;;;5012860;28;20506;-47
2022/08/10 07:14:17;;;;;;;17.80;4.95;;;28.90;99.90;;;;;;5013077;28;20281;-48
2022/08/10 07:16:46;;;;;;;18.05;4.88;;;28.90;99.90;;;;;;5012808;28;20029;-48
2022/08/10 07:19:13;;;;;;;22.65;4.40;;;29.00;99.90;;;;;;5012977;28;20109;-48
2022/08/10 07:21:42;;;;;;;18.17;4.68;;;29.00;99.90;;;;;;5012946;28;20159;-48
2022/08/10 07:24:13;;;;;;;17.27;5.80;;;29.00;99.90;;;;;;5012557;28;20052;-48
2022/08/10 07:26:48;;;;;;;13.45;5.57;;;29.00;99.90;;;;;;5012815;28;20025;-48
2022/08/10 07:29:17;;;;;;;24.90;5.43;;;29.00;99.90;;;;;;5012546;28;20018;-48
2022/08/10 07:31:44;;;;;;;16.60;4.88;;;29.00;99.90;;;;;;5012468;28;20026;-48
2022/08/10 07:34:13;;;;;;;19.80;4.80;;;29.00;99.90;;;;;;5012716;28;20018;-48
2022/08/10 07:36:41;;;;;;;11.40;4.47;;;29.00;99.90;;;;;;5012522;28;20560;-48
2022/08/10 07:39:09;;;;;;;11.73;3.67;;;29.00;99.90;;;;;;5012655;28;20022;-48
2022/08/10 07:41:40;;;;;;;19.73;5.13;;;29.00;99.90;;;;;;4978890;28;20025;-48
2022/08/10 07:44:09;;;;;;;11.75;3.97;;;29.10;99.90;;;;;;4994801;28;20050;-48
2022/08/10 07:46:42;;;;;;;19.65;5.32;;;29.00;99.90;;;;;;5012154;28;20438;-48
2022/08/10 07:49:16;;;;;;;13.15;4.03;;;29.00;99.90;;;;;;5012298;28;20017;-48
2022/08/10 07:51:42;;;;;;;15.23;4.20;;;29.10;99.90;;;;;;5012363;28;20025;-48
2022/08/10 07:54:14;;;;;;;13.03;4.40;;;29.10;99.90;;;;;;4994610;28;20055;-48
2022/08/10 07:56:43;;;;;;;10.65;3.38;;;29.10;99.90;;;;;;5012353;28;20362;-48
2022/08/10 07:59:13;;;;;;;8.32;3.20;;;29.10;99.90;;;;;;5012029;28;20478;-48
2022/08/10 08:01:43;;;;;;;13.30;5.15;;;29.10;99.90;;;;;;5011854;28;20049;-48
2022/08/10 08:04:12;;;;;;;12.35;3.55;;;29.10;99.90;;;;;;5012152;28;20076;-48
2022/08/10 08:06:40;;;;;;;15.90;3.55;;;29.20;99.90;;;;;;5011996;28;20045;-48
2022/08/10 08:09:06;;;;;;;10.27;3.60;;;29.30;99.90;;;;;;5011979;28;20109;-48
2022/08/10 08:11:33;;;;;;;11.50;3.40;;;29.30;99.90;;;;;;5011411;28;20120;-48
2022/08/10 08:14:00;;;;;;;11.02;2.97;;;29.30;99.90;;;;;;5011515;28;20471;-48
2022/08/10 08:16:28;;;;;;;11.50;3.17;;;29.30;99.90;;;;;;5011787;28;20030;-48
2022/08/10 08:18:55;;;;;;;16.55;3.63;;;29.30;99.90;;;;;;5011760;28;20084;-48
2022/08/10 08:21:22;;;;;;;10.70;3.65;;;29.30;99.90;;;;;;5011801;28;20517;-48
2022/08/10 08:23:50;;;;;;;6.90;3.47;;;29.40;99.90;;;;;;5011616;28;20022;-48
2022/08/10 08:26:18;;;;;;;10.98;3.80;;;29.40;99.90;;;;;;5011462;28;20249;-48
2022/08/10 08:28:47;;;;;;;13.88;3.65;;;29.40;99.90;;;;;;5011739;28;20030;-47
2022/08/10 08:31:14;;;;;;;8.50;3.55;;;29.50;99.90;;;;;;5011316;28;20041;-50
2022/08/10 08:33:41;;;;;;;;;;;29.50;99.90;;;;;;5012208;28;20386;-48
2022/08/10 08:36:07;;;;;;;6.55;2.83;;;29.50;99.90;;;;;;5011700;28;19913;-49
2022/08/10 08:38:35;;;;;;;8.77;3.20;;;29.50;99.90;;;;;;5011446;28;20648;-49
2022/08/10 08:41:33;;;;;;;7.15;3.05;;;29.50;99.90;;;;;;5011730;28;20479;-49
2022/08/10 08:44:04;;;;;;;16.95;3.70;;;29.60;99.90;;;;;;5010808;28;20026;-49
2022/08/10 08:46:57;;;;;;;11.43;3.00;;;29.60;99.90;;;;;;5011264;28;20049;-49
2022/08/10 08:49:46;;;;;;;11.15;3.50;;;29.60;99.90;;;;;;5011118;28;20029;-49
2022/08/10 08:52:34;;;;;;;13.05;3.38;;;29.60;99.90;;;;;;5011384;28;20034;-48
2022/08/10 08:55:24;;;;;;;13.23;3.33;;;29.70;99.90;;;;;;5011421;28;20320;-49
2022/08/10 08:58:27;;;;;;;14.30;3.80;;;29.70;99.90;;;;;;5011159;28;20026;-49
2022/08/10 09:01:18;;;;;;;7.90;3.05;;;29.70;99.90;;;;;;5001689;28;20065;-49
2022/08/10 09:04:02;;;;;;;14.93;3.35;;;29.70;99.90;;;;;;5011127;28;20474;-49
2022/08/10 09:06:52;;;;;;;10.55;3.15;;;29.80;99.90;;;;;;5011157;28;20112;-49
2022/08/10 09:09:37;;;;;;;9.82;3.47;;;29.80;99.90;;;;;;5010956;28;20021;-49
2022/08/10 09:12:44;;;;;;;8.45;2.95;;;29.90;99.90;;;;;;5011178;28;20026;-49
2022/08/10 09:15:28;;;;;;;8.05;3.45;;;29.90;99.90;;;;;;4931447;29;20032;-49
2022/08/10 09:18:24;;;;;;;7.65;3.30;;;29.90;99.90;;;;;;5007674;28;20495;-49
2022/08/10 09:21:18;;;;;;;7.97;3.05;;;29.90;99.90;;;;;;5011034;28;20030;-49
2022/08/10 09:24:33;;;;;;;10.68;3.33;;;29.90;99.90;;;;;;5010965;28;20034;-49
2022/08/10 09:27:08;;;;;;;8.18;2.92;;;30.00;99.90;;;;;;5002654;28;20529;-49
2022/08/10 09:29:43;;;;;;;8.93;3.25;;;30.00;99.90;;;;;;5015086;28;20470;-49
2022/08/10 09:32:13;;;;;;;10.50;3.53;;;30.00;99.90;;;;;;5014708;28;20038;-49
2022/08/10 09:35:07;;;;;;;13.38;3.72;;;30.00;99.90;;;;;;5014690;28;20520;-49
2022/08/10 09:37:54;;;;;;;8.90;3.65;;;30.00;99.90;;;;;;5014139;28;20034;-49
2022/08/10 09:40:30;;;;;;;10.00;3.83;;;30.10;99.90;;;;;;4999951;28;20030;-49
2022/08/10 09:43:21;;;;;;;13.52;3.65;;;30.10;99.90;;;;;;5014676;28;20544;-49
2022/08/10 09:46:02;;;;;;;9.18;3.38;;;30.10;99.90;;;;;;4998570;28;20034;-49
2022/08/10 09:48:34;;;;;;;13.38;3.65;;;30.10;99.90;;;;;;5002356;28;20030;-49
2022/08/10 09:51:10;;;;;;;9.57;2.95;;;30.20;99.90;;;;;;5007156;28;20053;-49
2022/08/10 09:54:04;;;;;;;12.38;4.25;;;30.20;99.90;;;;;;5010481;28;20018;-48
2022/08/10 09:57:12;;;;;;;13.93;4.65;;;30.30;99.90;;;;;;5006795;28;20050;-48
2022/08/10 10:00:02;;;;;;;9.07;4.20;;;30.30;99.90;;;;;;5005800;28;20028;-49
2022/08/10 10:02:53;;;;;;;10.75;3.60;;;30.30;99.90;;;;;;5009074;28;20176;-49
2022/08/10 10:05:31;;;;;;;20.02;4.57;;;30.30;99.90;;;;;;4983560;28;20046;-49
2022/08/10 10:08:23;;;;;;;10.48;3.33;;;30.30;99.90;;;;;;5012018;28;20026;-49
2022/08/10 10:11:19;;;;;;;9.18;2.85;;;30.40;99.90;;;;;;5002961;28;20030;-49
2022/08/10 10:14:09;;;;;;;13.80;4.38;;;30.40;99.90;;;;;;5011420;28;20697;-49
2022/08/10 10:16:56;;;;;;;7.60;3.28;;;30.40;99.90;;;;;;5009093;28;20501;-48
2022/08/10 10:19:43;;;;;;;11.68;3.42;;;30.40;99.90;;;;;;5013182;28;20026;-49
2022/08/10 10:22:12;;;;;;;;;;;30.50;99.90;;;;;;5007012;28;20482;-48
2022/08/10 10:24:49;;;;;;;10.77;3.60;;;30.50;99.90;;;;;;5004776;28;19917;-49
2022/08/10 10:27:51;;;;;;;8.25;3.33;;;30.50;99.90;;;;;;5011821;28;20475;-49
2022/08/10 10:30:18;;;;;;;9.43;3.80;;;30.50;99.90;;;;;;4981012;28;20038;-49
2022/08/10 10:32:50;;;;;;;13.30;3.45;;;30.60;99.90;;;;;;5010119;28;20175;-49
2022/08/10 10:35:18;;;;;;;10.60;2.70;;;30.60;99.90;;;;;;5010762;28;20392;-49
2022/08/10 10:37:46;;;;;;;7.72;3.50;;;30.50;99.90;;;;;;5012856;28;20037;-49
2022/08/10 10:40:14;;;;;;;10.27;4.50;;;30.50;99.90;;;;;;5008178;28;20060;-49
2022/08/10 10:42:48;;;;;;;12.98;4.00;;;30.60;99.90;;;;;;5006763;28;20026;-49
2022/08/10 10:45:32;;;;;;;11.52;3.90;;;30.60;99.90;;;;;;5007444;28;20030;-48
2022/08/10 10:48:26;;;;;;;12.38;3.80;;;30.60;99.90;;;;;;5009195;28;20033;-49
2022/08/10 10:51:29;;;;;;;13.20;4.65;;;30.70;99.90;;;;;;5012288;28;20065;-48
2022/08/10 10:54:06;;;;;;;8.23;3.90;;;30.70;99.90;;;;;;5012093;28;20097;-49
2022/08/10 10:56:50;;;;;;;9.20;3.33;;;30.70;99.90;;;;;;5008135;28;20054;-49
2022/08/10 10:59:51;;;;;;;9.90;3.47;;;30.70;99.90;;;;;;5008620;28;20049;-50
2022/08/10 11:03:08;;;;;;;9.75;3.05;;;30.70;99.90;;;;;;5010835;28;20042;-48
2022/08/10 11:05:54;;;;;;;9.55;3.17;;;30.70;99.90;;;;;;4981263;28;20100;-49
2022/08/10 11:08:28;;;;;;;11.80;4.82;;;30.70;99.90;;;;;;4988118;28;20030;-49
2022/08/10 11:11:11;;;;;;;10.52;4.00;;;30.70;99.90;;;;;;5008094;28;20041;-49
2022/08/10 11:13:49;;;;;;;15.50;4.53;;;30.70;99.90;;;;;;5005565;28;20018;-48
2022/08/10 11:16:52;;;;;;;6.53;3.30;;;30.80;99.90;;;;;;4995154;28;20563;-49
2022/08/10 11:20:02;;;;;;;8.27;3.53;;;30.80;99.90;;;;;;5007516;28;20022;-49
2022/08/10 11:23:05;;;;;;;12.88;4.03;;;30.80;99.90;;;;;;4997954;28;20030;-49
2022/08/10 11:25:35;;;;;;;9.50;3.42;;;30.90;99.90;;;;;;5008404;28;20030;-50
2022/08/10 11:28:11;;;;;;;9.82;3.67;;;30.90;99.90;;;;;;5003229;28;20026;-49
2022/08/10 11:31:05;;;;;;;11.20;3.60;;;30.90;99.90;;;;;;5005804;28;20128;-49
2022/08/10 11:33:49;;;;;;;7.97;3.25;;;30.90;99.90;;;;;;5010293;28;20482;-49
2022/08/10 11:36:26;;;;;;;12.80;4.63;;;31.00;99.90;;;;;;5010667;28;20026;-49
2022/08/10 11:39:37;;;;;;;8.95;3.70;;;30.90;99.90;;;;;;5010505;28;20026;-49
2022/08/10 11:42:31;;;;;;;8.23;2.92;;;30.90;99.90;;;;;;5007180;28;20031;-49
2022/08/10 11:45:26;;;;;;;15.68;4.18;;;31.00;99.90;;;;;;5007189;28;20117;-49
2022/08/10 11:48:26;;;;;;;9.85;3.70;;;31.00;99.90;;;;;;5008081;28;20124;-49
2022/08/10 11:50:58;;;;;;;11.68;3.83;;;31.00;99.90;;;;;;5002218;28;20549;-48
2022/08/10 11:53:48;;;;;;;15.20;4.40;;;31.10;99.90;;;;;;5004772;28;20366;-49
2022/08/10 11:56:26;;;;;;;10.77;4.65;;;31.10;99.90;;;;;;5009159;28;20100;-50
2022/08/10 12:01:40;;;;;;;8.90;3.88;;;31.10;99.90;;;;;;5007192;28;20060;-50
2022/08/10 12:04:07;;;;;;;15.20;6.97;;;31.10;99.90;;;;;;5008741;28;20025;-49
2022/08/10 12:06:35;;;;;;;10.70;5.82;;;31.20;99.90;;;;;;5009391;28;20398;-49
2022/08/10 12:09:04;;;;;;;12.48;5.85;;;31.20;99.90;;;;;;5007513;28;20025;-49
2022/08/10 12:11:30;;;;;;;7.32;3.25;;;31.20;99.90;;;;;;5005601;28;20052;-48
2022/08/10 12:14:28;;;;;;;8.30;3.97;;;31.20;99.90;;;;;;5000150;28;20029;-47
2022/08/10 12:17:37;;;;;;;9.57;4.90;;;31.20;99.90;;;;;;5003941;28;20060;-48
2022/08/10 12:20:13;;;;;;;9.30;3.67;;;31.30;99.90;;;;;;5007636;28;20034;-48
2022/08/10 12:23:06;;;;;;;13.27;3.53;;;31.30;99.90;;;;;;5008285;28;20042;-49
2022/08/10 12:25:50;;;;;;;14.18;4.13;;;31.30;99.90;;;;;;5004235;28;20045;-48
2022/08/10 12:28:23;;;;;;;9.18;4.47;;;31.30;99.90;;;;;;5009439;28;20018;-49
2022/08/10 12:30:56;;;;;;;20.85;6.35;;;31.30;99.90;;;;;;5008542;28;20029;-49
2022/08/10 12:33:27;;;;;;;14.75;7.68;;;31.30;99.90;;;;;;5009030;28;20536;-49
2022/08/10 12:36:14;;;;;;;15.25;4.47;;;31.30;99.90;;;;;;4987602;28;20026;-48
2022/08/10 12:39:01;;;;;;;;;;;31.40;99.90;;;;;;5001751;28;20389;-49
2022/08/10 12:41:41;;;;;;;9.32;3.30;;;31.40;99.90;;;;;;5000694;28;20055;-48
2022/08/10 12:44:33;;;;;;;12.27;5.97;;;31.40;99.90;;;;;;5002437;28;20025;-49
2022/08/10 12:47:25;;;;;;;14.50;3.92;;;31.40;99.90;;;;;;4986453;28;20038;-49
2022/08/10 12:49:50;;;;;;;12.15;5.28;;;31.40;99.90;;;;;;4971208;28;20041;-50
2022/08/10 12:52:23;;;;;;;10.88;3.30;;;31.40;99.90;;;;;;5003344;28;20516;-50
2022/08/10 12:54:52;;;;;;;7.25;3.00;;;31.50;99.90;;;;;;5008759;28;20109;-49
2022/08/10 12:57:23;;;;;;;12.90;3.65;;;31.50;99.90;;;;;;5006906;28;20110;-48
2022/08/10 12:59:57;;;;;;;13.20;4.28;;;31.50;99.90;;;;;;4999763;28;20038;-49
2022/08/10 13:02:32;;;;;;;6.60;3.10;;;31.50;99.90;;;;;;4997384;28;20088;-49
2022/08/10 13:05:03;;;;;;;7.63;3.03;;;31.50;99.90;;;;;;4996512;28;20383;-48
2022/08/10 13:07:38;;;;;;;11.38;3.70;;;31.50;99.90;;;;;;4997503;28;20049;-49
2022/08/10 13:10:07;;;;;;;8.93;3.60;;;31.50;99.90;;;;;;5000009;28;20026;-50
2022/08/10 13:12:38;;;;;;;8.25;3.20;;;31.50;99.90;;;;;;4997927;28;20485;-50
2022/08/10 13:15:16;;;;;;;12.20;3.28;;;31.60;99.90;;;;;;5000877;28;20102;-50
2022/08/10 13:17:46;;;;;;;11.70;3.70;;;31.60;99.90;;;;;;5002165;28;20026;-50
2022/08/10 13:20:18;;;;;;;9.00;3.47;;;31.60;99.90;;;;;;5001173;28;20029;-50
2022/08/10 13:22:48;;;;;;;6.95;3.25;;;31.60;99.90;;;;;;5003493;28;20122;-49
2022/08/10 13:25:21;;;;;;;4.95;2.50;;;31.60;99.90;;;;;;5008986;28;20030;-48
2022/08/10 13:27:49;;;;;;;11.75;4.43;;;31.70;99.90;;;;;;4991690;28;20575;-48